sensor_id;sensor_type;location;lat;lon;timestamp;pressure;altitude;pressure_sealevel;temperature;humidity
58239;BME280;44037;55.638;37.356;2023-03-15T00:01:02;98472.38;;;4.40;60.64
58239;BME280;44037;55.638;37.356;2023-03-15T00:03:29;98470.66;;;4.39;60.21
58239;BME280;44037;55.638;37.356;2023-03-15T00:05:56;98472.31;;;4.35;60.65
58239;BME280;44037;55.638;37.356;2023-03-15T00:08:26;98470.59;;;4.34;61.50
58239;BME280;44037;55.638;37.356;2023-03-15T00:10:53;98472.31;;;4.35;61.36
58239;BME280;44037;55.638;37.356;2023-03-15T00:13:20;98475.78;;;4.37;61.78
58239;BME280;44037;55.638;37.356;2023-03-15T00:15:49;98474.97;;;4.41;62.15
58239;BME280;44037;55.638;37.356;2023-03-15T00:18:18;98484.38;;;4.42;62.25
58239;BME280;44037;55.638;37.356;2023-03-15T00:20:46;98478.41;;;4.40;61.72
58239;BME280;44037;55.638;37.356;2023-03-15T00:23:13;98476.59;;;4.35;61.89
58239;BME280;44037;55.638;37.356;2023-03-15T00:25:43;98466.28;;;4.32;61.61
58239;BME280;44037;55.638;37.356;2023-03-15T00:28:11;98474.75;;;4.26;61.43
58239;BME280;44037;55.638;37.356;2023-03-15T00:30:38;98468.66;;;4.21;62.00
58239;BME280;44037;55.638;37.356;2023-03-15T00:33:05;98470.34;;;4.19;62.53
58239;BME280;44037;55.638;37.356;2023-03-15T00:35:37;98478.91;;;4.19;62.45
58239;BME280;44037;55.638;37.356;2023-03-15T00:38:04;98481.50;;;4.22;63.07
58239;BME280;44037;55.638;37.356;2023-03-15T00:40:31;98479.00;;;4.25;62.83
58239;BME280;44037;55.638;37.356;2023-03-15T00:42:58;98473.91;;;4.27;62.06
58239;BME280;44037;55.638;37.356;2023-03-15T00:45:25;98469.63;;;4.29;62.76
58239;BME280;44037;55.638;37.356;2023-03-15T00:47:53;98458.66;;;4.35;62.67
58239;BME280;44037;55.638;37.356;2023-03-15T00:50:21;98466.44;;;4.42;63.81
58239;BME280;44037;55.638;37.356;2023-03-15T00:52:50;98475.97;;;4.50;63.56
58239;BME280;44037;55.638;37.356;2023-03-15T00:55:18;98465.78;;;4.56;62.42
58239;BME280;44037;55.638;37.356;2023-03-15T00:57:46;98474.34;;;4.58;63.13
58239;BME280;44037;55.638;37.356;2023-03-15T01:00:15;98469.22;;;4.58;62.53
58239;BME280;44037;55.638;37.356;2023-03-15T01:02:44;98476.09;;;4.59;62.25
58239;BME280;44037;55.638;37.356;2023-03-15T01:05:12;98469.28;;;4.61;62.89
58239;BME280;44037;55.638;37.356;2023-03-15T01:07:39;98472.75;;;4.65;62.60
58239;BME280;44037;55.638;37.356;2023-03-15T01:10:10;98473.63;;;4.67;63.00
58239;BME280;44037;55.638;37.356;2023-03-15T01:12:38;98475.38;;;4.68;62.53
58239;BME280;44037;55.638;37.356;2023-03-15T01:15:07;98466.75;;;4.64;63.72
58239;BME280;44037;55.638;37.356;2023-03-15T01:17:36;98474.16;;;4.44;65.00
58239;BME280;44037;55.638;37.356;2023-03-15T01:20:04;98467.00;;;4.23;65.79
58239;BME280;44037;55.638;37.356;2023-03-15T01:22:32;98480.38;;;4.03;66.42
58239;BME280;44037;55.638;37.356;2023-03-15T01:24:59;98473.31;;;3.90;67.18
58239;BME280;44037;55.638;37.356;2023-03-15T01:27:27;98475.75;;;3.83;67.11
58239;BME280;44037;55.638;37.356;2023-03-15T01:29:54;98467.16;;;3.80;67.76
58239;BME280;44037;55.638;37.356;2023-03-15T01:32:21;98480.81;;;3.80;67.76
58239;BME280;44037;55.638;37.356;2023-03-15T01:34:48;98468.88;;;3.81;68.16
58239;BME280;44037;55.638;37.356;2023-03-15T01:37:15;98476.69;;;3.89;67.92
58239;BME280;44037;55.638;37.356;2023-03-15T01:39:43;98476.84;;;3.98;68.37
58239;BME280;44037;55.638;37.356;2023-03-15T01:42:10;98473.59;;;4.08;68.18
58239;BME280;44037;55.638;37.356;2023-03-15T01:45:02;98475.47;;;4.19;68.40
58239;BME280;44037;55.638;37.356;2023-03-15T01:47:29;98479.09;;;4.32;67.62
58239;BME280;44037;55.638;37.356;2023-03-15T01:50:01;98476.69;;;4.41;67.63
58239;BME280;44037;55.638;37.356;2023-03-15T01:52:32;98469.94;;;4.48;67.15
58239;BME280;44037;55.638;37.356;2023-03-15T01:55:04;98485.41;;;4.54;66.25
58239;BME280;44037;55.638;37.356;2023-03-15T01:57:37;98476.13;;;4.62;66.42
58239;BME280;44037;55.638;37.356;2023-03-15T02:00:10;98473.69;;;4.70;65.50
58239;BME280;44037;55.638;37.356;2023-03-15T02:02:40;98476.25;;;4.71;65.62
58239;BME280;44037;55.638;37.356;2023-03-15T02:05:13;98487.41;;;4.72;65.60
58239;BME280;44037;55.638;37.356;2023-03-15T02:07:44;98484.84;;;4.73;65.02
58239;BME280;44037;55.638;37.356;2023-03-15T02:10:16;98482.28;;;4.75;65.68
58239;BME280;44037;55.638;37.356;2023-03-15T02:12:47;98476.38;;;4.78;65.88
58239;BME280;44037;55.638;37.356;2023-03-15T02:15:19;98485.75;;;4.77;65.96
58239;BME280;44037;55.638;37.356;2023-03-15T02:17:47;98478.88;;;4.76;66.03
58239;BME280;44037;55.638;37.356;2023-03-15T02:20:23;98484.03;;;4.76;65.55
58239;BME280;44037;55.638;37.356;2023-03-15T02:22:56;98486.53;;;4.73;65.47
58239;BME280;44037;55.638;37.356;2023-03-15T02:25:48;98490.81;;;4.71;65.91
58239;BME280;44037;55.638;37.356;2023-03-15T02:28:20;98487.34;;;4.69;65.33
58239;BME280;44037;55.638;37.356;2023-03-15T02:30:48;98499.28;;;4.67;64.76
58239;BME280;44037;55.638;37.356;2023-03-15T02:33:20;98478.66;;;4.60;65.07
58239;BME280;44037;55.638;37.356;2023-03-15T02:35:48;98484.63;;;4.58;65.90
58239;BME280;44037;55.638;37.356;2023-03-15T02:38:15;98475.19;;;4.55;65.63
58239;BME280;44037;55.638;37.356;2023-03-15T02:40:43;98483.66;;;4.51;65.69
58239;BME280;44037;55.638;37.356;2023-03-15T02:43:14;98495.59;;;4.49;65.90
58239;BME280;44037;55.638;37.356;2023-03-15T02:45:43;98475.91;;;4.46;65.79
58239;BME280;44037;55.638;37.356;2023-03-15T02:48:11;98495.53;;;4.43;66.10
58239;BME280;44037;55.638;37.356;2023-03-15T02:50:39;98497.19;;;4.39;65.97
58239;BME280;44037;55.638;37.356;2023-03-15T02:53:06;98480.91;;;4.37;67.01
58239;BME280;44037;55.638;37.356;2023-03-15T02:55:33;98486.84;;;4.35;66.61
58239;BME280;44037;55.638;37.356;2023-03-15T02:58:00;98484.16;;;4.27;65.72
58239;BME280;44037;55.638;37.356;2023-03-15T03:00:28;98496.06;;;4.23;66.10
58239;BME280;44037;55.638;37.356;2023-03-15T03:02:57;98491.69;;;4.18;66.40
58239;BME280;44037;55.638;37.356;2023-03-15T03:05:24;98489.03;;;4.11;67.21
58239;BME280;44037;55.638;37.356;2023-03-15T03:07:51;98495.00;;;4.12;66.90
58239;BME280;44037;55.638;37.356;2023-03-15T03:10:20;98486.44;;;4.10;66.51
58239;BME280;44037;55.638;37.356;2023-03-15T03:12:47;98483.84;;;4.08;67.38
58239;BME280;44037;55.638;37.356;2023-03-15T03:15:18;98488.16;;;4.09;67.54
58239;BME280;44037;55.638;37.356;2023-03-15T03:17:45;98494.16;;;4.11;67.00
58239;BME280;44037;55.638;37.356;2023-03-15T03:20:14;98491.53;;;4.08;66.90
58239;BME280;44037;55.638;37.356;2023-03-15T03:22:42;98489.75;;;4.04;66.85
58239;BME280;44037;55.638;37.356;2023-03-15T03:25:11;98502.56;;;4.04;67.84
58239;BME280;44037;55.638;37.356;2023-03-15T03:27:39;98492.31;;;4.04;67.66
58239;BME280;44037;55.638;37.356;2023-03-15T03:30:09;98482.06;;;4.04;67.84
58239;BME280;44037;55.638;37.356;2023-03-15T03:32:36;98483.75;;;4.02;67.93
58239;BME280;44037;55.638;37.356;2023-03-15T03:35:04;98491.47;;;4.02;68.22
58239;BME280;44037;55.638;37.356;2023-03-15T03:37:32;98482.06;;;4.04;68.15
58239;BME280;44037;55.638;37.356;2023-03-15T03:40:00;98487.25;;;4.07;67.60
58239;BME280;44037;55.638;37.356;2023-03-15T03:42:32;98485.59;;;4.09;68.02
58239;BME280;44037;55.638;37.356;2023-03-15T03:44:59;98496.69;;;4.10;67.11
58239;BME280;44037;55.638;37.356;2023-03-15T03:47:26;98496.66;;;4.08;67.14
58239;BME280;44037;55.638;37.356;2023-03-15T03:49:53;98488.97;;;4.08;67.39
58239;BME280;44037;55.638;37.356;2023-03-15T03:52:20;98492.38;;;4.06;66.94
58239;BME280;44037;55.638;37.356;2023-03-15T03:54:49;98502.63;;;4.07;67.71
58239;BME280;44037;55.638;37.356;2023-03-15T03:57:16;98497.50;;;4.07;67.08
58239;BME280;44037;55.638;37.356;2023-03-15T03:59:43;98502.69;;;4.10;67.20
58239;BME280;44037;55.638;37.356;2023-03-15T04:02:10;98509.50;;;4.10;67.22
58239;BME280;44037;55.638;37.356;2023-03-15T04:04:37;98498.41;;;4.09;67.68
58239;BME280;44037;55.638;37.356;2023-03-15T04:07:05;98507.88;;;4.13;66.94
58239;BME280;44037;55.638;37.356;2023-03-15T04:09:32;98501.06;;;4.15;67.69
58239;BME280;44037;55.638;37.356;2023-03-15T04:12:03;98505.38;;;4.18;66.69
58239;BME280;44037;55.638;37.356;2023-03-15T04:14:30;98502.81;;;4.18;66.91
58239;BME280;44037;55.638;37.356;2023-03-15T04:16:58;98503.72;;;4.20;66.73
58239;BME280;44037;55.638;37.356;2023-03-15T04:19:29;98508.03;;;4.23;67.16
58239;BME280;44037;55.638;37.356;2023-03-15T04:21:56;98498.72;;;4.28;67.09
58239;BME280;44037;55.638;37.356;2023-03-15T04:24:23;98494.50;;;4.33;66.38
58239;BME280;44037;55.638;37.356;2023-03-15T04:26:50;98487.75;;;4.38;66.97
58239;BME280;44037;55.638;37.356;2023-03-15T04:29:23;98511.81;;;4.46;66.31
58239;BME280;44037;55.638;37.356;2023-03-15T04:31:50;98497.38;;;4.52;66.41
58239;BME280;44037;55.638;37.356;2023-03-15T04:34:17;98485.44;;;4.55;66.36
58239;BME280;44037;55.638;37.356;2023-03-15T04:36:44;98510.31;;;4.59;65.50
58239;BME280;44037;55.638;37.356;2023-03-15T04:39:11;98505.22;;;4.63;65.31
58239;BME280;44037;55.638;37.356;2023-03-15T04:41:38;98502.69;;;4.67;65.44
58239;BME280;44037;55.638;37.356;2023-03-15T04:44:06;98509.63;;;4.71;64.94
58239;BME280;44037;55.638;37.356;2023-03-15T04:46:34;98515.66;;;4.75;64.76
58239;BME280;44037;55.638;37.356;2023-03-15T04:49:01;98523.41;;;4.78;64.96
58239;BME280;44037;55.638;37.356;2023-03-15T04:51:30;98508.91;;;4.80;64.73
58239;BME280;44037;55.638;37.356;2023-03-15T04:53:57;98532.84;;;4.81;63.81
58239;BME280;44037;55.638;37.356;2023-03-15T04:56:24;98518.31;;;4.81;63.66
58239;BME280;44037;55.638;37.356;2023-03-15T04:58:51;98531.16;;;4.83;63.64
58239;BME280;44037;55.638;37.356;2023-03-15T05:01:26;98517.50;;;4.84;63.56
58239;BME280;44037;55.638;37.356;2023-03-15T05:03:55;98531.22;;;4.86;63.53
58239;BME280;44037;55.638;37.356;2023-03-15T05:06:22;98538.97;;;4.89;64.20
58239;BME280;44037;55.638;37.356;2023-03-15T05:08:49;98532.09;;;4.88;63.47
58239;BME280;44037;55.638;37.356;2023-03-15T05:11:17;98536.41;;;4.90;63.17
58239;BME280;44037;55.638;37.356;2023-03-15T05:13:44;98544.13;;;4.90;63.64
58239;BME280;44037;55.638;37.356;2023-03-15T05:16:11;98552.69;;;4.91;62.62
58239;BME280;44037;55.638;37.356;2023-03-15T05:18:39;98557.81;;;4.91;63.00
58239;BME280;44037;55.638;37.356;2023-03-15T05:21:07;98561.28;;;4.95;62.94
58239;BME280;44037;55.638;37.356;2023-03-15T05:23:34;98553.66;;;4.99;62.44
58239;BME280;44037;55.638;37.356;2023-03-15T05:26:01;98550.38;;;5.10;62.26
58239;BME280;44037;55.638;37.356;2023-03-15T05:28:28;98565.03;;;5.18;62.31
58239;BME280;44037;55.638;37.356;2023-03-15T05:30:56;98561.75;;;5.29;62.06
58239;BME280;44037;55.638;37.356;2023-03-15T05:33:23;98561.84;;;5.35;62.32
58239;BME280;44037;55.638;37.356;2023-03-15T05:35:50;98564.47;;;5.43;61.77
58239;BME280;44037;55.638;37.356;2023-03-15T05:38:22;98555.19;;;5.52;61.16
58239;BME280;44037;55.638;37.356;2023-03-15T05:40:51;98556.19;;;5.62;60.72
58239;BME280;44037;55.638;37.356;2023-03-15T05:43:19;98572.56;;;5.72;60.41
58239;BME280;44037;55.638;37.356;2023-03-15T05:45:46;98566.63;;;5.78;60.14
58239;BME280;44037;55.638;37.356;2023-03-15T05:48:14;98571.84;;;5.84;59.62
58239;BME280;44037;55.638;37.356;2023-03-15T05:50:42;98570.19;;;5.89;60.34
58239;BME280;44037;55.638;37.356;2023-03-15T05:53:09;98566.81;;;5.96;59.49
58239;BME280;44037;55.638;37.356;2023-03-15T05:55:37;98570.38;;;6.05;59.98
58239;BME280;44037;55.638;37.356;2023-03-15T05:58:04;98563.59;;;6.13;59.34
58239;BME280;44037;55.638;37.356;2023-03-15T06:00:32;98585.06;;;6.18;58.49
58239;BME280;44037;55.638;37.356;2023-03-15T06:02:59;98567.09;;;6.21;58.13
58239;BME280;44037;55.638;37.356;2023-03-15T06:05:26;98586.84;;;6.24;58.11
58239;BME280;44037;55.638;37.356;2023-03-15T06:07:53;98595.44;;;6.23;58.38
58239;BME280;44037;55.638;37.356;2023-03-15T06:10:20;98592.00;;;6.25;58.64
58239;BME280;44037;55.638;37.356;2023-03-15T06:12:49;98587.75;;;6.29;58.56
58239;BME280;44037;55.638;37.356;2023-03-15T06:15:17;98589.53;;;6.35;58.30
58239;BME280;44037;55.638;37.356;2023-03-15T06:17:44;98580.16;;;6.43;58.32
58239;BME280;44037;55.638;37.356;2023-03-15T06:20:12;98577.69;;;6.55;57.83
58239;BME280;44037;55.638;37.356;2023-03-15T06:22:39;98581.28;;;6.71;58.19
58239;BME280;44037;55.638;37.356;2023-03-15T06:25:07;98587.41;;;6.90;57.66
58239;BME280;44037;55.638;37.356;2023-03-15T06:27:35;98579.78;;;7.09;56.72
58239;BME280;44037;55.638;37.356;2023-03-15T06:30:04;98587.66;;;7.28;56.31
58239;BME280;44037;55.638;37.356;2023-03-15T06:32:31;98592.88;;;7.42;56.02
58239;BME280;44037;55.638;37.356;2023-03-15T06:34:59;98602.38;;;7.49;55.30
58239;BME280;44037;55.638;37.356;2023-03-15T06:37:26;98593.78;;;7.58;55.44
58239;BME280;44037;55.638;37.356;2023-03-15T06:39:53;98593.88;;;7.73;54.16
58239;BME280;44037;55.638;37.356;2023-03-15T06:42:20;98587.06;;;7.92;53.03
58239;BME280;44037;55.638;37.356;2023-03-15T06:44:47;98588.84;;;8.13;53.14
58239;BME280;44037;55.638;37.356;2023-03-15T06:47:15;98604.34;;;8.40;53.19
58239;BME280;44037;55.638;37.356;2023-03-15T06:49:42;98605.28;;;8.67;52.29
58239;BME280;44037;55.638;37.356;2023-03-15T06:52:15;98603.56;;;8.84;52.15
58239;BME280;44037;55.638;37.356;2023-03-15T06:54:42;98600.94;;;9.06;51.24
58239;BME280;44037;55.638;37.356;2023-03-15T06:57:10;98606.09;;;9.26;50.88
58239;BME280;44037;55.638;37.356;2023-03-15T06:59:37;98606.03;;;9.46;51.14
58239;BME280;44037;55.638;37.356;2023-03-15T07:02:04;98604.25;;;9.65;50.77
58239;BME280;44037;55.638;37.356;2023-03-15T07:04:33;98604.22;;;9.75;49.66
58239;BME280;44037;55.638;37.356;2023-03-15T07:07:00;98602.47;;;9.78;50.34
58239;BME280;44037;55.638;37.356;2023-03-15T07:09:27;98596.41;;;9.82;49.73
58239;BME280;44037;55.638;37.356;2023-03-15T07:11:54;98599.00;;;9.84;49.59
58239;BME280;44037;55.638;37.356;2023-03-15T07:14:21;98603.31;;;9.87;49.10
58239;BME280;44037;55.638;37.356;2023-03-15T07:16:48;98615.34;;;9.92;49.49
58239;BME280;44037;55.638;37.356;2023-03-15T07:19:15;98610.97;;;10.04;49.21
58239;BME280;44037;55.638;37.356;2023-03-15T07:21:44;98607.44;;;10.20;49.11
58239;BME280;44037;55.638;37.356;2023-03-15T07:24:11;98610.81;;;10.36;48.50
58239;BME280;44037;55.638;37.356;2023-03-15T07:26:38;98610.72;;;10.50;49.00
58239;BME280;44037;55.638;37.356;2023-03-15T07:29:05;98608.91;;;10.62;48.41
58239;BME280;44037;55.638;37.356;2023-03-15T07:31:32;98615.78;;;10.67;48.81
58239;BME280;44037;55.638;37.356;2023-03-15T07:33:59;98609.72;;;10.68;47.64
58239;BME280;44037;55.638;37.356;2023-03-15T07:36:26;98606.38;;;10.58;46.92
58239;BME280;44037;55.638;37.356;2023-03-15T07:38:54;98619.38;;;10.49;46.40
58239;BME280;44037;55.638;37.356;2023-03-15T07:41:21;98620.31;;;10.39;47.35
58239;BME280;44037;55.638;37.356;2023-03-15T07:43:48;98628.03;;;10.36;47.83
58239;BME280;44037;55.638;37.356;2023-03-15T07:46:15;98616.88;;;10.38;47.76
58239;BME280;44037;55.638;37.356;2023-03-15T07:48:42;98627.16;;;10.44;48.05
58239;BME280;44037;55.638;37.356;2023-03-15T07:51:10;98616.72;;;10.57;47.73
58239;BME280;44037;55.638;37.356;2023-03-15T07:53:37;98624.41;;;10.66;47.52
58239;BME280;44037;55.638;37.356;2023-03-15T07:56:06;98620.97;;;10.69;46.90
58239;BME280;44037;55.638;37.356;2023-03-15T07:58:33;98627.00;;;10.69;46.55
58239;BME280;44037;55.638;37.356;2023-03-15T08:01:00;98628.81;;;10.55;47.08
58239;BME280;44037;55.638;37.356;2023-03-15T08:03:28;98622.88;;;10.42;47.69
58239;BME280;44037;55.638;37.356;2023-03-15T08:05:56;98634.94;;;10.41;47.69
58239;BME280;44037;55.638;37.356;2023-03-15T08:08:23;98626.34;;;10.39;47.83
58239;BME280;44037;55.638;37.356;2023-03-15T08:10:50;98628.03;;;10.36;47.95
58239;BME280;44037;55.638;37.356;2023-03-15T08:13:19;98632.41;;;10.30;47.37
58239;BME280;44037;55.638;37.356;2023-03-15T08:15:46;98631.56;;;10.25;47.84
58239;BME280;44037;55.638;37.356;2023-03-15T08:18:13;98622.09;;;10.21;48.26
58239;BME280;44037;55.638;37.356;2023-03-15T08:20:40;98641.13;;;10.14;47.61
58239;BME280;44037;55.638;37.356;2023-03-15T08:23:08;98632.50;;;10.12;48.60
58239;BME280;44037;55.638;37.356;2023-03-15T08:25:41;98640.28;;;10.13;48.24
58239;BME280;44037;55.638;37.356;2023-03-15T08:28:08;98636.81;;;10.10;48.23
58239;BME280;44037;55.638;37.356;2023-03-15T08:30:37;98647.19;;;10.08;47.97
58239;BME280;44037;55.638;37.356;2023-03-15T08:33:04;98629.91;;;10.15;48.88
58239;BME280;44037;55.638;37.356;2023-03-15T08:35:32;98636.72;;;10.28;48.11
58239;BME280;44037;55.638;37.356;2023-03-15T08:38:00;98641.84;;;10.42;48.58
58239;BME280;44037;55.638;37.356;2023-03-15T08:40:30;98637.47;;;10.55;47.51
58239;BME280;44037;55.638;37.356;2023-03-15T08:42:58;98640.84;;;10.64;47.96
58239;BME280;44037;55.638;37.356;2023-03-15T08:45:26;98640.78;;;10.74;47.69
58239;BME280;44037;55.638;37.356;2023-03-15T08:47:55;98642.47;;;10.83;47.49
58239;BME280;44037;55.638;37.356;2023-03-15T08:50:23;98640.63;;;10.90;46.48
58239;BME280;44037;55.638;37.356;2023-03-15T08:52:51;98645.78;;;10.96;47.57
58239;BME280;44037;55.638;37.356;2023-03-15T08:55:18;98640.53;;;11.07;47.70
58239;BME280;44037;55.638;37.356;2023-03-15T08:57:45;98643.00;;;11.18;47.16
58239;BME280;44037;55.638;37.356;2023-03-15T09:00:13;98634.31;;;11.24;46.88
58239;BME280;44037;55.638;37.356;2023-03-15T09:02:45;98635.13;;;11.29;47.38
58239;BME280;44037;55.638;37.356;2023-03-15T09:05:15;98642.00;;;11.34;47.33
58239;BME280;44037;55.638;37.356;2023-03-15T09:07:43;98636.78;;;11.36;46.24
58239;BME280;44037;55.638;37.356;2023-03-15T09:10:11;98637.69;;;11.32;46.55
58239;BME280;44037;55.638;37.356;2023-03-15T09:12:39;98631.63;;;11.31;46.86
58239;BME280;44037;55.638;37.356;2023-03-15T09:15:07;98648.09;;;11.29;46.74
58239;BME280;44037;55.638;37.356;2023-03-15T09:17:35;98633.44;;;11.25;47.26
58239;BME280;44037;55.638;37.356;2023-03-15T09:20:03;98629.97;;;11.26;47.55
58239;BME280;44037;55.638;37.356;2023-03-15T09:22:37;98629.03;;;11.34;46.22
58239;BME280;44037;55.638;37.356;2023-03-15T09:25:05;98635.88;;;11.40;46.11
58239;BME280;44037;55.638;37.356;2023-03-15T09:27:33;98640.16;;;11.44;46.73
58239;BME280;44037;55.638;37.356;2023-03-15T09:30:00;98640.13;;;11.49;46.25
58239;BME280;44037;55.638;37.356;2023-03-15T09:32:29;98647.00;;;11.51;46.74
58239;BME280;44037;55.638;37.356;2023-03-15T09:35:04;98634.06;;;11.48;46.22
58239;BME280;44037;55.638;37.356;2023-03-15T09:37:32;98649.56;;;11.53;46.98
58239;BME280;44037;55.638;37.356;2023-03-15T09:40:01;98638.31;;;11.56;46.53
58239;BME280;44037;55.638;37.356;2023-03-15T09:42:46;98641.69;;;11.64;47.04
58239;BME280;44037;55.638;37.356;2023-03-15T09:45:22;98633.84;;;11.68;46.14
58239;BME280;44037;55.638;37.356;2023-03-15T09:47:59;98637.25;;;11.72;46.74
58239;BME280;44037;55.638;37.356;2023-03-15T09:50:31;98627.66;;;11.80;46.74
58239;BME280;44037;55.638;37.356;2023-03-15T09:53:02;98640.50;;;11.93;46.31
58239;BME280;44037;55.638;37.356;2023-03-15T09:55:32;98635.19;;;12.05;46.07
58239;BME280;44037;55.638;37.356;2023-03-15T09:58:00;98641.16;;;12.10;46.32
58239;BME280;44037;55.638;37.356;2023-03-15T10:00:37;98631.56;;;12.16;46.18
58239;BME280;44037;55.638;37.356;2023-03-15T10:03:05;98630.72;;;12.15;45.53
58239;BME280;44037;55.638;37.356;2023-03-15T10:05:41;98632.47;;;12.11;46.02
58239;BME280;44037;55.638;37.356;2023-03-15T10:08:10;98627.28;;;12.11;46.00
58239;BME280;44037;55.638;37.356;2023-03-15T10:10:46;98629.06;;;12.08;45.92
58239;BME280;44037;55.638;37.356;2023-03-15T10:13:28;98625.63;;;12.07;46.09
58239;BME280;44037;55.638;37.356;2023-03-15T10:16:18;98630.88;;;12.03;46.10
58239;BME280;44037;55.638;37.356;2023-03-15T10:19:00;98621.34;;;12.03;46.75
58239;BME280;44037;55.638;37.356;2023-03-15T10:21:35;98624.81;;;12.02;47.15
58239;BME280;44037;55.638;37.356;2023-03-15T10:24:14;98631.72;;;12.03;46.05
58239;BME280;44037;55.638;37.356;2023-03-15T10:26:44;98628.16;;;12.10;46.44
58239;BME280;44037;55.638;37.356;2023-03-15T10:29:14;98628.88;;;12.23;47.12
58239;BME280;44037;55.638;37.356;2023-03-15T10:31:43;98621.81;;;12.33;46.67
58239;BME280;44037;55.638;37.356;2023-03-15T10:34:14;98627.75;;;12.41;46.14
58239;BME280;44037;55.638;37.356;2023-03-15T10:36:46;98631.84;;;12.58;45.92
58239;BME280;44037;55.638;37.356;2023-03-15T10:39:14;98634.09;;;12.80;45.75
58239;BME280;44037;55.638;37.356;2023-03-15T10:41:44;98632.09;;;12.96;45.05
58239;BME280;44037;55.638;37.356;2023-03-15T10:44:14;98640.66;;;13.04;44.79
58239;BME280;44037;55.638;37.356;2023-03-15T10:46:58;98622.47;;;13.04;44.94
58239;BME280;44037;55.638;37.356;2023-03-15T10:49:32;98638.97;;;13.00;44.54
58239;BME280;44037;55.638;37.356;2023-03-15T10:52:01;98644.22;;;12.97;45.32
58239;BME280;44037;55.638;37.356;2023-03-15T10:54:30;98638.22;;;12.93;45.09
58239;BME280;44037;55.638;37.356;2023-03-15T10:57:02;98633.09;;;12.88;45.09
58239;BME280;44037;55.638;37.356;2023-03-15T10:59:31;98636.88;;;12.69;44.56
58239;BME280;44037;55.638;37.356;2023-03-15T11:02:19;98643.16;;;12.54;45.64
58239;BME280;44037;55.638;37.356;2023-03-15T11:04:49;98633.91;;;12.36;45.19
58239;BME280;44037;55.638;37.356;2023-03-15T11:07:16;98640.16;;;12.21;45.52
58239;BME280;44037;55.638;37.356;2023-03-15T11:09:50;98631.66;;;12.08;45.90
58239;BME280;44037;55.638;37.356;2023-03-15T11:12:24;98642.16;;;12.00;46.15
58239;BME280;44037;55.638;37.356;2023-03-15T11:14:56;98640.50;;;11.91;46.12
58239;BME280;44037;55.638;37.356;2023-03-15T11:17:25;98652.69;;;11.84;46.56
58239;BME280;44037;55.638;37.356;2023-03-15T11:19:55;98641.47;;;11.82;46.98
58239;BME280;44037;55.638;37.356;2023-03-15T11:22:24;98638.81;;;11.86;47.17
58239;BME280;44037;55.638;37.356;2023-03-15T11:24:51;98640.53;;;11.88;46.97
58239;BME280;44037;55.638;37.356;2023-03-15T11:27:23;98637.94;;;11.88;47.12
58239;BME280;44037;55.638;37.356;2023-03-15T11:29:53;98647.53;;;11.81;46.87
58239;BME280;44037;55.638;37.356;2023-03-15T11:32:23;98639.00;;;11.72;46.99
58239;BME280;44037;55.638;37.356;2023-03-15T11:34:55;98649.38;;;11.72;47.66
58239;BME280;44037;55.638;37.356;2023-03-15T11:37:27;98645.09;;;11.67;47.40
58239;BME280;44037;55.638;37.356;2023-03-15T11:39:59;98634.75;;;11.66;47.45
58239;BME280;44037;55.638;37.356;2023-03-15T11:42:34;98633.88;;;11.67;47.91
58239;BME280;44037;55.638;37.356;2023-03-15T11:45:05;98635.59;;;11.66;47.91
58239;BME280;44037;55.638;37.356;2023-03-15T11:47:42;98621.66;;;11.75;47.47
58239;BME280;44037;55.638;37.356;2023-03-15T11:50:14;98607.84;;;11.75;46.91
58239;BME280;44037;55.638;37.356;2023-03-15T11:52:41;98621.78;;;11.66;47.44
58239;BME280;44037;55.638;37.356;2023-03-15T11:55:15;98620.03;;;11.66;46.95
58239;BME280;44037;55.638;37.356;2023-03-15T11:57:46;98618.25;;;11.72;46.83
58239;BME280;44037;55.638;37.356;2023-03-15T12:03:31;98607.88;;;11.72;47.92
58239;BME280;44037;55.638;37.356;2023-03-15T12:06:10;98624.38;;;11.66;47.90
58239;BME280;44037;55.638;37.356;2023-03-15T12:08:43;98628.84;;;11.51;48.67
58239;BME280;44037;55.638;37.356;2023-03-15T12:11:11;98630.53;;;11.56;48.48
58239;BME280;44037;55.638;37.356;2023-03-15T12:13:50;98639.88;;;11.71;48.60
58239;BME280;44037;55.638;37.356;2023-03-15T12:16:20;98637.19;;;11.78;48.59
58239;BME280;44037;55.638;37.356;2023-03-15T12:18:48;98642.25;;;11.88;47.85
58239;BME280;44037;55.638;37.356;2023-03-15T12:21:31;98643.06;;;11.94;48.17
58239;BME280;44037;55.638;37.356;2023-03-15T12:24:01;98642.19;;;11.95;47.54
58239;BME280;44037;55.638;37.356;2023-03-15T12:26:43;98640.47;;;11.96;47.73
58239;BME280;44037;55.638;37.356;2023-03-15T12:29:15;98645.66;;;11.96;47.17
58239;BME280;44037;55.638;37.356;2023-03-15T12:31:47;98644.03;;;11.87;46.92
58239;BME280;44037;55.638;37.356;2023-03-15T12:34:24;98656.31;;;11.71;48.21
58239;BME280;44037;55.638;37.356;2023-03-15T12:36:55;98646.91;;;11.62;48.48
58239;BME280;44037;55.638;37.356;2023-03-15T12:39:38;98640.16;;;11.43;47.90
58239;BME280;44037;55.638;37.356;2023-03-15T12:42:10;98651.59;;;11.21;48.72
58239;BME280;44037;55.638;37.356;2023-03-15T12:44:43;98653.56;;;10.96;48.91
58239;BME280;44037;55.638;37.356;2023-03-15T12:47:11;98654.53;;;10.83;49.61
58239;BME280;44037;55.638;37.356;2023-03-15T12:49:40;98646.91;;;10.64;49.99
58239;BME280;44037;55.638;37.356;2023-03-15T12:52:37;98655.63;;;10.46;50.51
58239;BME280;44037;55.638;37.356;2023-03-15T12:55:12;98659.13;;;10.37;50.57
58239;BME280;44037;55.638;37.356;2023-03-15T12:57:46;98660.84;;;10.34;50.41
58239;BME280;44037;55.638;37.356;2023-03-15T13:00:19;98657.41;;;10.35;50.82
58239;BME280;44037;55.638;37.356;2023-03-15T13:02:48;98665.19;;;10.38;50.60
58239;BME280;44037;55.638;37.356;2023-03-15T13:05:19;98667.78;;;10.33;50.69
58239;BME280;44037;55.638;37.356;2023-03-15T13:07:53;98666.09;;;10.23;51.15
58239;BME280;44037;55.638;37.356;2023-03-15T13:10:43;98664.50;;;10.00;51.57